createdAt,value
2023-06-08T00:02:25.590Z,87.51
2023-06-08T00:04:54.175Z,87.76
2023-06-08T00:07:22.966Z,86.67
2023-06-08T00:09:52.273Z,87.13
2023-06-08T00:12:19.460Z,85.92
2023-06-08T00:14:46.950Z,86.58
2023-06-08T00:17:14.899Z,88.60
2023-06-08T00:19:44.171Z,88.11
2023-06-08T00:22:14.153Z,88.85
2023-06-08T00:24:41.523Z,88.95
2023-06-08T00:27:10.065Z,88.80
2023-06-08T00:29:36.859Z,88.10
2023-06-08T00:32:04.019Z,88.10
2023-06-08T00:34:30.951Z,87.45
2023-06-08T00:36:57.681Z,87.29
2023-06-08T00:39:24.309Z,87.69
2023-06-08T00:41:51.231Z,87.37
2023-06-08T00:44:18.076Z,86.91
2023-06-08T00:46:44.895Z,86.86
2023-06-08T00:49:17.232Z,86.86
2023-06-08T00:51:44.921Z,86.69
2023-06-08T00:54:15.912Z,86.49
2023-06-08T00:56:43.602Z,86.92
2023-06-08T00:59:13.177Z,87.71
2023-06-08T01:01:41.672Z,87.97
2023-06-08T01:04:10.137Z,86.76
2023-06-08T01:06:46.067Z,87.35
2023-06-08T01:09:45.238Z,88.18
2023-06-08T01:12:34.365Z,88.35
2023-06-08T01:15:13.409Z,87.96
2023-06-08T01:17:49.662Z,88.59
2023-06-08T01:20:36.098Z,87.37
2023-06-08T01:23:12.159Z,88.17
2023-06-08T01:25:40.205Z,89.53
2023-06-08T01:28:14.195Z,89.69
2023-06-08T01:30:50.499Z,90.24
2023-06-08T01:33:19.916Z,90.14
2023-06-08T01:36:08.639Z,89.43
2023-06-08T01:38:47.356Z,89.63
2023-06-08T01:41:21.948Z,90.72
2023-06-08T01:43:51.643Z,89.73
2023-06-08T01:46:21.445Z,89.41
2023-06-08T01:48:50.082Z,89.66
2023-06-08T01:51:18.161Z,89.27
2023-06-08T01:53:44.927Z,90.50
2023-06-08T01:56:11.638Z,92.31
2023-06-08T01:58:38.335Z,92.54
2023-06-08T02:01:05.018Z,90.33
2023-06-08T02:03:31.700Z,90.49
2023-06-08T02:05:58.331Z,89.51
2023-06-08T02:08:24.975Z,89.66
2023-06-08T02:10:51.674Z,90.16
2023-06-08T02:13:18.302Z,92.56
2023-06-08T02:15:44.886Z,92.33
2023-06-08T02:18:12.454Z,93.12
2023-06-08T02:20:39.024Z,92.75
2023-06-08T02:23:05.682Z,91.69
2023-06-08T02:25:32.300Z,91.06
2023-06-08T02:27:59.004Z,90.80
2023-06-08T02:30:26.758Z,90.82
2023-06-08T02:32:54.510Z,92.40
2023-06-08T02:35:21.392Z,92.49
2023-06-08T02:37:48.104Z,91.52
2023-06-08T02:40:14.745Z,90.97
2023-06-08T02:42:41.745Z,90.69
2023-06-08T02:45:08.755Z,90.54
2023-06-08T02:47:35.728Z,91.27
2023-06-08T02:50:02.631Z,90.18
2023-06-08T02:52:29.302Z,90.75
2023-06-08T02:54:55.912Z,91.62
2023-06-08T02:57:22.522Z,91.05
2023-06-08T02:59:49.175Z,91.14
2023-06-08T03:02:16.284Z,90.58
2023-06-08T03:04:44.985Z,91.47
2023-06-08T03:07:16.682Z,90.36
2023-06-08T03:09:43.711Z,91.74
2023-06-08T03:12:13.643Z,92.26
2023-06-08T03:14:41.824Z,89.80
2023-06-08T03:17:09.071Z,89.94
2023-06-08T03:19:35.700Z,90.32
2023-06-08T03:22:06.063Z,89.63
2023-06-08T03:24:34.114Z,89.79
2023-06-08T03:27:02.663Z,89.76
2023-06-08T03:29:30.311Z,87.98
2023-06-08T03:31:58.124Z,88.24
2023-06-08T03:34:26.801Z,87.82
2023-06-08T03:36:54.653Z,88.22
2023-06-08T03:39:21.963Z,87.55
2023-06-08T03:41:48.927Z,86.86
2023-06-08T03:44:15.651Z,86.59
2023-06-08T03:46:42.379Z,86.89
2023-06-08T03:49:09.143Z,86.39
2023-06-08T03:51:36.968Z,86.60
2023-06-08T03:54:03.765Z,86.30
2023-06-08T03:56:30.526Z,85.78
2023-06-08T03:58:58.070Z,85.46
2023-06-08T04:01:24.895Z,84.92
2023-06-08T04:03:51.994Z,84.09
2023-06-08T04:06:19.998Z,83.69
2023-06-08T04:08:46.758Z,82.06
2023-06-08T04:11:13.778Z,81.62
2023-06-08T04:13:41.717Z,80.41
2023-06-08T04:16:10.948Z,79.95
2023-06-08T04:18:41.059Z,79.70
2023-06-08T04:21:08.792Z,78.84
2023-06-08T04:23:37.142Z,79.00
2023-06-08T04:26:08.266Z,78.06
2023-06-08T04:28:36.056Z,78.27
2023-06-08T04:31:03.028Z,77.42
2023-06-08T04:33:29.853Z,77.55
2023-06-08T04:35:57.703Z,76.96
2023-06-08T04:38:24.603Z,76.37
2023-06-08T04:40:55.803Z,76.59
2023-06-08T04:43:23.568Z,76.69
2023-06-08T04:45:58.699Z,76.04
2023-06-08T04:48:29.573Z,75.80
2023-06-08T04:51:01.345Z,75.19
2023-06-08T04:53:34.952Z,74.31
2023-06-08T04:56:02.947Z,73.38
2023-06-08T04:58:30.949Z,73.79
2023-06-08T05:00:58.538Z,72.80
2023-06-08T05:03:26.849Z,72.36
2023-06-08T05:05:53.977Z,72.13
2023-06-08T05:08:20.798Z,72.34
2023-06-08T05:10:47.531Z,72.06
2023-06-08T05:13:14.375Z,70.20
2023-06-08T05:15:40.986Z,69.06
2023-06-08T05:18:07.730Z,69.42
2023-06-08T05:20:34.565Z,69.85
2023-06-08T05:23:01.304Z,69.38
2023-06-08T05:25:28.087Z,68.59
2023-06-08T05:27:54.668Z,68.24
2023-06-08T05:30:21.353Z,67.73
2023-06-08T05:32:48.207Z,66.35
2023-06-08T05:35:14.853Z,66.64
2023-06-08T05:37:41.519Z,65.99
2023-06-08T05:40:09.218Z,65.41
2023-06-08T05:42:36.297Z,65.72
2023-06-08T05:45:03.019Z,65.76
2023-06-08T05:47:32.993Z,65.16
2023-06-08T05:50:01.577Z,64.25
2023-06-08T05:52:28.378Z,64.36
2023-06-08T05:54:55.036Z,63.39
2023-06-08T05:57:21.806Z,64.75
2023-06-08T05:59:48.493Z,68.63
2023-06-08T06:02:15.257Z,68.34
2023-06-08T06:04:42.562Z,67.57
2023-06-08T06:07:09.577Z,67.45
2023-06-08T06:09:36.682Z,68.45
2023-06-08T06:12:04.060Z,67.60
2023-06-08T06:14:39.528Z,66.18
2023-06-08T06:17:08.369Z,64.88
2023-06-08T06:19:39.715Z,64.60
2023-06-08T06:22:11.100Z,65.55
2023-06-08T06:24:38.682Z,68.63
2023-06-08T06:27:06.771Z,68.11
2023-06-08T06:29:33.917Z,67.13
2023-06-08T06:32:00.867Z,65.74
2023-06-08T06:34:27.561Z,63.01
2023-06-08T06:36:54.644Z,63.72
2023-06-08T06:39:21.386Z,65.09
2023-06-08T06:41:48.040Z,63.63
2023-06-08T06:44:14.671Z,63.45
2023-06-08T06:46:42.082Z,62.64
2023-06-08T06:49:09.003Z,60.62
2023-06-08T06:51:37.641Z,60.53
2023-06-08T06:54:04.455Z,59.46
2023-06-08T06:56:32.306Z,58.69
2023-06-08T06:58:59.238Z,57.62
2023-06-08T07:01:26.298Z,56.26
2023-06-08T07:03:53.558Z,55.28
2023-06-08T07:06:24.435Z,54.57
2023-06-08T07:08:51.695Z,55.20
2023-06-08T07:11:18.450Z,55.00
2023-06-08T07:13:45.193Z,54.87
2023-06-08T07:16:12.031Z,57.26
2023-06-08T07:18:38.922Z,56.48
2023-06-08T07:21:05.531Z,56.62
2023-06-08T07:23:40.234Z,56.53
2023-06-08T07:26:26.232Z,56.40
2023-06-08T07:28:55.414Z,54.64
2023-06-08T07:31:24.353Z,54.41
2023-06-08T07:33:51.959Z,54.95
2023-06-08T07:36:18.632Z,54.00
2023-06-08T07:38:45.496Z,55.00
2023-06-08T07:41:12.724Z,55.52
2023-06-08T07:43:40.911Z,55.00
2023-06-08T07:46:07.677Z,54.50
2023-06-08T07:48:34.407Z,52.57
2023-06-08T07:51:01.284Z,54.08
2023-06-08T07:53:38.887Z,54.23
2023-06-08T07:56:06.443Z,54.40
2023-06-08T07:58:33.637Z,56.89
2023-06-08T08:01:01.628Z,54.60
2023-06-08T08:03:29.448Z,53.95
2023-06-08T08:05:56.835Z,53.97
2023-06-08T08:08:23.526Z,54.92
2023-06-08T08:10:50.592Z,57.78
2023-06-08T08:13:17.289Z,58.05
2023-06-08T08:15:44.063Z,56.47
2023-06-08T08:18:11.321Z,56.97
2023-06-08T08:20:38.250Z,55.95
2023-06-08T08:23:04.920Z,55.95
2023-06-08T08:25:31.641Z,55.69
2023-06-08T08:27:58.949Z,55.06
2023-06-08T08:30:25.954Z,54.98
2023-06-08T08:32:52.655Z,55.13
2023-06-08T08:35:19.677Z,53.44
2023-06-08T08:37:46.640Z,53.67
2023-06-08T08:40:14.842Z,55.25
2023-06-08T08:42:52.600Z,56.38
2023-06-08T08:45:22.739Z,55.91
2023-06-08T08:47:54.640Z,57.33
2023-06-08T08:50:22.007Z,54.34
2023-06-08T08:52:54.498Z,54.55
2023-06-08T08:55:35.625Z,54.00
2023-06-08T08:58:03.333Z,53.14
2023-06-08T09:00:36.883Z,54.09
2023-06-08T09:03:03.662Z,53.88
2023-06-08T09:05:30.429Z,52.38
2023-06-08T09:07:57.551Z,55.10
2023-06-08T09:10:26.876Z,53.24
2023-06-08T09:13:00.694Z,51.72
2023-06-08T09:15:28.979Z,51.52
2023-06-08T09:17:57.010Z,51.79
2023-06-08T09:20:42.127Z,51.35
2023-06-08T09:23:21.416Z,52.89
2023-06-08T09:25:48.640Z,51.49
2023-06-08T09:28:23.752Z,51.58
2023-06-08T09:30:51.177Z,53.52
2023-06-08T09:33:18.488Z,51.94
2023-06-08T09:35:45.605Z,51.24
2023-06-08T09:38:23.010Z,49.79
2023-06-08T09:40:50.799Z,50.14
2023-06-08T09:43:34.693Z,51.07
2023-06-08T09:46:01.429Z,50.11
2023-06-08T09:48:28.041Z,49.32
2023-06-08T09:51:01.391Z,48.70
2023-06-08T09:53:29.241Z,48.33
2023-06-08T09:56:00.262Z,48.29
2023-06-08T09:58:30.527Z,48.61
2023-06-08T10:01:05.528Z,48.37
2023-06-08T10:03:40.044Z,48.49
2023-06-08T10:06:10.097Z,47.70
2023-06-08T10:08:39.947Z,48.76
2023-06-08T10:11:08.905Z,49.97
2023-06-08T10:13:36.033Z,51.40
2023-06-08T10:16:03.452Z,50.23
2023-06-08T10:18:31.582Z,48.23
2023-06-08T10:20:58.695Z,48.02
2023-06-08T10:23:26.468Z,47.11
2023-06-08T10:25:54.938Z,49.52
2023-06-08T10:28:22.093Z,48.71
2023-06-08T10:30:48.987Z,48.28
2023-06-08T10:33:25.756Z,49.30
2023-06-08T10:36:11.033Z,48.88
2023-06-08T10:38:57.140Z,48.66
2023-06-08T10:41:46.757Z,48.69
2023-06-08T10:44:27.792Z,47.43
2023-06-08T10:47:13.235Z,46.17
2023-06-08T10:49:45.768Z,46.64
2023-06-08T10:52:21.109Z,46.52
2023-06-08T10:54:53.066Z,45.75
2023-06-08T10:57:41.113Z,47.32
2023-06-08T11:00:26.391Z,45.64
2023-06-08T11:02:59.076Z,44.74
2023-06-08T11:05:29.615Z,45.23
2023-06-08T11:07:57.501Z,47.11
2023-06-08T11:10:25.022Z,49.14
2023-06-08T11:12:51.716Z,48.89
2023-06-08T11:15:19.886Z,48.55
2023-06-08T11:18:00.362Z,48.20
2023-06-08T11:20:27.965Z,49.34
2023-06-08T11:22:55.043Z,48.02
2023-06-08T11:25:24.410Z,47.39
2023-06-08T11:27:56.862Z,46.07
2023-06-08T11:30:27.933Z,48.09
2023-06-08T11:32:58.001Z,46.48
2023-06-08T11:35:25.094Z,45.89
2023-06-08T11:38:00.476Z,45.92
2023-06-08T11:40:28.260Z,46.48
2023-06-08T11:42:57.115Z,45.67
2023-06-08T11:45:24.813Z,46.32
2023-06-08T11:48:13.925Z,45.94
2023-06-08T11:50:51.632Z,45.19
2023-06-08T11:53:27.914Z,46.33
2023-06-08T11:55:55.467Z,45.61
2023-06-08T11:58:29.269Z,46.79
2023-06-08T12:01:12.584Z,46.43
2023-06-08T12:03:43.937Z,46.65
2023-06-08T12:06:11.108Z,44.91
2023-06-08T12:08:37.734Z,45.97
2023-06-08T12:11:11.887Z,44.26
2023-06-08T12:13:43.230Z,45.82
2023-06-08T12:16:11.516Z,46.08
2023-06-08T12:18:42.629Z,45.99
2023-06-08T12:21:11.840Z,45.90
2023-06-08T12:23:38.589Z,45.37
2023-06-08T12:26:05.283Z,44.40
2023-06-08T12:28:33.011Z,42.29
2023-06-08T12:31:02.131Z,40.76
2023-06-08T12:33:29.404Z,38.02
2023-06-08T12:35:56.129Z,35.05
2023-06-08T12:38:23.441Z,34.20
2023-06-08T12:40:52.916Z,35.87
2023-06-08T12:43:21.582Z,34.54
2023-06-08T12:45:49.323Z,32.85
2023-06-08T12:48:16.931Z,31.96
2023-06-08T12:50:43.648Z,32.77
2023-06-08T12:53:10.348Z,32.87
2023-06-08T12:55:37.136Z,33.24
2023-06-08T12:58:03.796Z,32.99
2023-06-08T13:00:30.425Z,32.84
2023-06-08T13:02:58.676Z,36.91
2023-06-08T13:05:30.357Z,36.04
2023-06-08T13:08:07.541Z,36.29
2023-06-08T13:10:36.724Z,37.75
2023-06-08T13:13:04.745Z,39.88
2023-06-08T13:15:32.414Z,40.61
2023-06-08T13:17:59.662Z,40.49
2023-06-08T13:20:26.806Z,42.96
2023-06-08T13:22:54.340Z,43.44
2023-06-08T13:25:22.312Z,42.42
2023-06-08T13:27:49.563Z,41.17
2023-06-08T13:30:16.822Z,41.87
2023-06-08T13:32:45.447Z,43.29
2023-06-08T13:35:12.674Z,42.08
2023-06-08T13:37:39.527Z,42.29
2023-06-08T13:40:09.569Z,43.51
2023-06-08T13:42:37.175Z,43.44
2023-06-08T13:45:04.111Z,44.20
2023-06-08T13:47:30.772Z,42.65
2023-06-08T13:49:57.437Z,41.19
2023-06-08T13:52:24.393Z,39.60
2023-06-08T13:54:50.974Z,37.18
2023-06-08T13:57:17.643Z,35.78
2023-06-08T13:59:44.280Z,34.80
2023-06-08T14:02:11.044Z,32.71
2023-06-08T14:04:37.970Z,31.40
2023-06-08T14:07:04.819Z,32.42
2023-06-08T14:09:32.425Z,33.45
2023-06-08T14:11:59.899Z,32.81
2023-06-08T14:14:26.639Z,31.23
2023-06-08T14:16:53.354Z,30.45
2023-06-08T14:19:19.956Z,32.76
2023-06-08T14:21:47.091Z,34.62
2023-06-08T14:24:13.962Z,35.00
2023-06-08T14:26:40.840Z,35.63
2023-06-08T14:29:09.487Z,33.93
2023-06-08T14:31:36.198Z,33.76
2023-06-08T14:34:02.976Z,33.14
2023-06-08T14:36:29.616Z,32.46
2023-06-08T14:38:56.896Z,32.67
2023-06-08T14:41:24.320Z,32.34
2023-06-08T14:43:52.869Z,31.29
2023-06-08T14:46:20.200Z,32.23
2023-06-08T14:48:47.217Z,32.49
2023-06-08T14:51:35.550Z,33.10
2023-06-08T14:54:01.972Z,34.47
2023-06-08T14:56:28.809Z,33.72
2023-06-08T14:58:55.528Z,35.16
2023-06-08T15:01:22.247Z,35.41
2023-06-08T15:03:49.000Z,33.71
2023-06-08T15:06:15.694Z,32.12
2023-06-08T15:08:42.359Z,32.99
2023-06-08T15:11:09.114Z,32.23
2023-06-08T15:13:35.767Z,33.56
2023-06-08T15:16:03.203Z,32.93
2023-06-08T15:18:32.334Z,32.50
2023-06-08T15:20:59.427Z,33.11
2023-06-08T15:23:26.083Z,32.99
2023-06-08T15:25:52.901Z,32.69
2023-06-08T15:28:19.924Z,32.31
2023-06-08T15:30:46.729Z,31.50
2023-06-08T15:33:13.597Z,31.02
2023-06-08T15:35:40.237Z,31.22
2023-06-08T15:38:06.957Z,30.52
2023-06-08T15:40:33.617Z,31.13
2023-06-08T15:43:00.397Z,31.20
2023-06-08T15:45:27.269Z,30.76
2023-06-08T15:47:53.957Z,30.69
2023-06-08T15:50:20.698Z,30.42
2023-06-08T15:52:47.392Z,30.69
2023-06-08T15:55:14.142Z,30.44
2023-06-08T15:57:40.957Z,30.94
2023-06-08T16:00:09.039Z,31.18
2023-06-08T16:02:38.090Z,31.89
2023-06-08T16:05:07.012Z,31.25
2023-06-08T16:07:33.851Z,31.23
2023-06-08T16:10:04.733Z,30.82
2023-06-08T16:12:31.714Z,30.99
2023-06-08T16:14:58.798Z,30.87
2023-06-08T16:17:25.740Z,30.56
2023-06-08T16:19:52.526Z,30.47
2023-06-08T16:22:19.238Z,30.65
2023-06-08T16:24:45.960Z,30.85
2023-06-08T16:27:14.965Z,30.76
2023-06-08T16:29:42.241Z,31.03
2023-06-08T16:32:09.177Z,30.70
2023-06-08T16:34:35.936Z,30.57
2023-06-08T16:37:02.624Z,30.96
2023-06-08T16:39:29.354Z,31.28
2023-06-08T16:41:56.106Z,31.87
2023-06-08T16:44:22.809Z,31.95
2023-06-08T16:46:49.475Z,31.96
2023-06-08T16:49:16.293Z,31.95
2023-06-08T16:51:43.142Z,32.30
2023-06-08T16:54:09.798Z,32.65
2023-06-08T16:56:36.726Z,34.06
2023-06-08T16:59:03.438Z,33.65
2023-06-08T17:01:30.102Z,33.20
2023-06-08T17:03:58.382Z,33.22
2023-06-08T17:06:25.055Z,34.08
2023-06-08T17:08:51.802Z,35.25
2023-06-08T17:11:18.485Z,36.40
2023-06-08T17:13:45.473Z,37.59
2023-06-08T17:16:12.124Z,38.52
2023-06-08T17:18:39.407Z,39.54
2023-06-08T17:21:08.561Z,40.72
2023-06-08T17:23:35.819Z,41.62
2023-06-08T17:26:02.646Z,42.61
2023-06-08T17:28:29.345Z,43.49
2023-06-08T17:30:56.217Z,44.59
2023-06-08T17:33:25.149Z,45.31
2023-06-08T17:35:52.230Z,45.87
2023-06-08T17:38:18.930Z,46.50
2023-06-08T17:40:45.806Z,47.57
2023-06-08T17:43:12.433Z,48.13
2023-06-08T17:45:39.131Z,48.61
2023-06-08T17:48:06.137Z,50.03
2023-06-08T17:50:32.893Z,50.24
2023-06-08T17:53:03.721Z,50.18
2023-06-08T17:55:31.135Z,49.99
2023-06-08T17:57:59.305Z,50.20
2023-06-08T18:00:27.214Z,50.39
2023-06-08T18:02:54.324Z,50.29
2023-06-08T18:05:21.679Z,50.18
2023-06-08T18:07:48.341Z,50.17
2023-06-08T18:10:15.205Z,50.15
2023-06-08T18:12:42.919Z,49.80
2023-06-08T18:15:09.973Z,49.87
2023-06-08T18:17:36.616Z,50.49
2023-06-08T18:20:06.435Z,50.50
2023-06-08T18:22:34.021Z,49.96
2023-06-08T18:25:01.974Z,50.38
2023-06-08T18:27:29.095Z,50.86
2023-06-08T18:29:55.937Z,50.98
2023-06-08T18:32:22.645Z,51.87
2023-06-08T18:34:49.385Z,51.52
2023-06-08T18:37:16.988Z,51.39
2023-06-08T18:39:57.160Z,51.59
2023-06-08T18:42:25.876Z,51.75
2023-06-08T18:44:52.601Z,52.22
2023-06-08T18:47:19.385Z,51.78
2023-06-08T18:49:46.472Z,51.98
2023-06-08T18:52:13.384Z,52.04
2023-06-08T18:54:40.759Z,52.63
2023-06-08T18:57:08.072Z,52.59
2023-06-08T18:59:34.761Z,51.23
2023-06-08T19:02:01.486Z,51.48
2023-06-08T19:04:28.083Z,52.75
2023-06-08T19:06:54.691Z,54.73
2023-06-08T19:09:25.582Z,56.16
2023-06-08T19:11:52.860Z,57.15
2023-06-08T19:14:19.536Z,58.12
2023-06-08T19:16:48.838Z,58.73
2023-06-08T19:19:19.098Z,58.92
2023-06-08T19:21:45.801Z,60.23
2023-06-08T19:24:12.895Z,60.34
2023-06-08T19:26:40.274Z,60.60
2023-06-08T19:29:08.851Z,61.42
2023-06-08T19:31:35.912Z,61.98
2023-06-08T19:34:02.690Z,62.82
2023-06-08T19:36:29.481Z,62.64
2023-06-08T19:38:56.345Z,63.30
2023-06-08T19:41:23.776Z,63.57
2023-06-08T19:43:51.232Z,62.83
2023-06-08T19:46:22.111Z,63.20
2023-06-08T19:48:51.012Z,63.77
2023-06-08T19:51:17.743Z,64.17
2023-06-08T19:53:44.659Z,64.59
2023-06-08T19:56:11.328Z,63.87
2023-06-08T19:58:37.999Z,64.33
2023-06-08T20:01:04.801Z,63.77
2023-06-08T20:03:31.551Z,63.09
2023-06-08T20:05:58.359Z,63.35
2023-06-08T20:08:27.910Z,63.41
2023-06-08T20:10:55.628Z,64.76
2023-06-08T20:13:22.215Z,64.66
2023-06-08T20:15:48.979Z,65.03
2023-06-08T20:18:19.835Z,65.52
2023-06-08T20:20:47.169Z,64.48
2023-06-08T20:23:14.353Z,65.64
2023-06-08T20:25:43.441Z,65.43
2023-06-08T20:28:10.568Z,65.90
2023-06-08T20:30:38.026Z,66.32
2023-06-08T20:33:05.519Z,66.61
2023-06-08T20:35:32.416Z,66.86
2023-06-08T20:37:59.241Z,66.78
2023-06-08T20:40:25.868Z,67.02
2023-06-08T20:42:53.615Z,67.35
2023-06-08T20:45:20.655Z,67.63
2023-06-08T20:47:47.396Z,67.74
2023-06-08T20:50:14.212Z,69.82
2023-06-08T20:52:43.260Z,70.16
2023-06-08T20:55:10.459Z,70.99
2023-06-08T20:57:37.289Z,71.76
2023-06-08T21:00:07.610Z,72.18
2023-06-08T21:02:34.558Z,72.55
2023-06-08T21:05:01.215Z,72.29
2023-06-08T21:07:27.882Z,72.24
2023-06-08T21:09:54.571Z,72.20
2023-06-08T21:12:23.229Z,72.38
2023-06-08T21:14:49.964Z,72.47
2023-06-08T21:17:16.612Z,73.68
2023-06-08T21:19:43.264Z,72.79
2023-06-08T21:22:09.909Z,73.20
2023-06-08T21:24:36.533Z,73.12
2023-06-08T21:27:03.186Z,73.16
2023-06-08T21:29:29.893Z,73.60
2023-06-08T21:31:56.596Z,74.58
2023-06-08T21:34:23.300Z,73.89
2023-06-08T21:36:50.647Z,74.43
2023-06-08T21:39:17.319Z,74.67
2023-06-08T21:41:44.542Z,75.48
2023-06-08T21:44:11.306Z,75.60
2023-06-08T21:46:37.977Z,76.12
2023-06-08T21:49:04.720Z,76.44
2023-06-08T21:51:31.413Z,76.16
2023-06-08T21:53:58.025Z,76.22
2023-06-08T21:56:25.067Z,75.97
2023-06-08T21:58:51.707Z,76.47
2023-06-08T22:01:18.673Z,76.75
2023-06-08T22:03:45.427Z,76.62
2023-06-08T22:06:12.639Z,76.47
2023-06-08T22:08:39.241Z,75.78
2023-06-08T22:11:05.975Z,76.58
2023-06-08T22:13:34.021Z,76.40
2023-06-08T22:16:02.442Z,76.57
2023-06-08T22:18:29.968Z,76.85
2023-06-08T22:21:00.835Z,76.84
2023-06-08T22:23:28.094Z,77.58
2023-06-08T22:25:54.841Z,77.46
2023-06-08T22:28:22.300Z,78.58
2023-06-08T22:30:49.176Z,77.84
2023-06-08T22:33:18.714Z,77.60
2023-06-08T22:35:49.845Z,78.32
2023-06-08T22:38:16.640Z,78.54
2023-06-08T22:40:43.915Z,78.85
2023-06-08T22:43:11.456Z,78.82
2023-06-08T22:45:38.487Z,78.58
2023-06-08T22:48:05.735Z,78.79
2023-06-08T22:50:32.852Z,78.24
2023-06-08T22:52:59.795Z,78.39
2023-06-08T22:55:27.646Z,78.11
2023-06-08T22:57:55.128Z,79.29
2023-06-08T23:00:22.357Z,78.53
2023-06-08T23:02:49.598Z,78.53
2023-06-08T23:05:17.043Z,79.14
2023-06-08T23:07:45.130Z,79.01
2023-06-08T23:10:15.985Z,79.60
2023-06-08T23:12:44.072Z,80.32
2023-06-08T23:15:14.467Z,80.42
2023-06-08T23:17:41.267Z,80.08
2023-06-08T23:20:10.517Z,79.85
2023-06-08T23:22:37.254Z,80.24
2023-06-08T23:25:06.330Z,80.39
2023-06-08T23:27:33.776Z,80.88
2023-06-08T23:30:01.337Z,80.90
2023-06-08T23:32:28.266Z,80.43
2023-06-08T23:34:55.836Z,80.55
2023-06-08T23:37:23.177Z,81.52
2023-06-08T23:39:51.048Z,81.60
2023-06-08T23:42:20.594Z,81.79
2023-06-08T23:44:49.966Z,81.31
2023-06-08T23:47:20.498Z,80.98
2023-06-08T23:49:48.180Z,81.11
2023-06-08T23:52:15.061Z,81.32
2023-06-08T23:54:41.720Z,81.75
2023-06-08T23:57:10.115Z,82.29
2023-06-08T23:59:37.188Z,82.80
